createdAt,value
2023-01-26T00:06:56.414Z,-0.67
2023-01-26T00:17:02.330Z,-0.64
2023-01-26T00:27:08.145Z,-0.68
2023-01-26T00:37:13.977Z,-0.74
2023-01-26T00:47:20.162Z,-0.79
2023-01-26T00:57:26.020Z,-0.87
2023-01-26T01:07:31.839Z,-0.92
2023-01-26T01:17:37.906Z,-0.92
2023-01-26T01:27:43.683Z,-0.94
2023-01-26T01:37:49.347Z,-0.94
2023-01-26T01:47:57.248Z,-0.95
2023-01-26T01:58:06.238Z,-0.99
2023-01-26T02:08:14.507Z,-1.03
2023-01-26T02:18:20.810Z,-1.08
2023-01-26T02:28:28.874Z,-1.10
2023-01-26T02:38:41.154Z,-1.10
2023-01-26T02:49:04.516Z,-1.10
2023-01-26T02:59:10.316Z,-1.10
2023-01-26T03:09:16.430Z,-1.12
2023-01-26T03:19:40.417Z,-1.12
2023-01-26T03:29:46.982Z,-1.08
2023-01-26T03:40:11.755Z,-1.06
2023-01-26T03:50:36.359Z,-1.05
2023-01-26T04:00:42.274Z,-1.05
2023-01-26T04:10:47.986Z,-1.07
2023-01-26T04:21:11.464Z,-1.08
2023-01-26T04:31:17.549Z,-1.09
2023-01-26T04:41:23.909Z,-1.08
2023-01-26T04:51:29.587Z,-1.07
2023-01-26T05:01:35.540Z,-1.07
2023-01-26T05:11:41.332Z,-1.10
2023-01-26T05:21:47.408Z,-1.09
2023-01-26T05:31:53.506Z,-1.09
2023-01-26T05:41:59.214Z,-1.10
2023-01-26T05:52:09.165Z,-1.13
2023-01-26T06:02:15.399Z,-1.14
2023-01-26T06:12:22.811Z,-1.16
2023-01-26T06:22:28.882Z,-1.14
2023-01-26T06:32:34.604Z,-1.11
2023-01-26T06:42:40.299Z,-1.06
2023-01-26T06:52:51.734Z,-0.97
2023-01-26T07:02:57.581Z,-0.90
2023-01-26T07:13:04.453Z,-0.85
2023-01-26T07:23:10.695Z,-0.74
2023-01-26T07:33:16.592Z,-0.63
2023-01-26T07:43:22.662Z,-0.52
2023-01-26T07:53:29.392Z,-0.36
2023-01-26T08:03:33.661Z,-0.13
2023-01-26T08:13:39.781Z,0.13
2023-01-26T08:23:48.835Z,0.04
2023-01-26T08:33:56.413Z,0.07
2023-01-26T08:44:02.289Z,0.02
2023-01-26T08:54:09.655Z,0.05
2023-01-26T09:04:15.594Z,0.12
2023-01-26T09:14:21.493Z,0.27
2023-01-26T09:24:27.854Z,0.19
2023-01-26T09:34:33.717Z,0.23
2023-01-26T09:44:47.108Z,0.21
2023-01-26T09:54:55.394Z,0.19
2023-01-26T10:05:06.124Z,0.18
2023-01-26T10:15:26.985Z,0.18
2023-01-26T10:25:38.168Z,0.11
2023-01-26T10:35:44.055Z,0.04
2023-01-26T10:45:50.376Z,0.16
2023-01-26T10:56:05.580Z,0.38
2023-01-26T11:06:17.033Z,0.45
2023-01-26T11:16:26.194Z,0.57
2023-01-26T11:26:59.062Z,0.59
2023-01-26T11:37:53.819Z,0.60
2023-01-26T11:48:13.894Z,0.66
2023-01-26T11:58:33.336Z,0.61
2023-01-26T12:08:43.436Z,0.52
2023-01-26T12:19:10.042Z,0.42
2023-01-26T12:29:22.443Z,0.25
2023-01-26T12:39:36.961Z,0.09
2023-01-26T12:49:51.158Z,-0.01
2023-01-26T13:00:10.106Z,-0.19
2023-01-26T13:10:31.566Z,-0.26
2023-01-26T13:20:57.266Z,-0.15
2023-01-26T13:31:10.409Z,-0.18
2023-01-26T13:41:22.277Z,-0.25
2023-01-26T13:51:30.359Z,-0.29
2023-01-26T14:01:42.440Z,-0.37
2023-01-26T14:11:57.035Z,-0.47
2023-01-26T14:22:05.346Z,-0.64
2023-01-26T14:32:18.027Z,-0.75
2023-01-26T14:42:24.661Z,-0.85
2023-01-26T14:52:35.016Z,-0.93
2023-01-26T15:02:48.086Z,-1.03
2023-01-26T15:13:02.257Z,-1.11
2023-01-26T15:23:25.494Z,-1.21
2023-01-26T15:33:45.723Z,-1.27
2023-01-26T15:43:51.556Z,-1.33
2023-01-26T15:53:57.530Z,-1.41
2023-01-26T16:04:03.346Z,-1.42
2023-01-26T16:14:10.529Z,-1.39
2023-01-26T16:24:16.274Z,-1.42
2023-01-26T16:34:22.120Z,-1.42
2023-01-26T16:44:27.891Z,-1.43
2023-01-26T16:54:33.869Z,-1.45
2023-01-26T17:04:39.611Z,-1.43
2023-01-26T17:14:45.463Z,-1.39
2023-01-26T17:24:52.064Z,-1.38
2023-01-26T17:34:57.864Z,-1.43
2023-01-26T17:45:04.033Z,-1.47
2023-01-26T17:55:10.690Z,-1.53
2023-01-26T18:05:16.940Z,-1.58
2023-01-26T18:15:23.098Z,-1.59
2023-01-26T18:25:29.410Z,-1.58
2023-01-26T18:35:35.406Z,-1.53
2023-01-26T18:45:44.329Z,-1.45
2023-01-26T18:55:51.302Z,-1.42
2023-01-26T19:05:57.090Z,-1.41
2023-01-26T19:16:03.078Z,-1.37
2023-01-26T19:26:14.009Z,-1.33
2023-01-26T19:36:20.808Z,-1.28
2023-01-26T19:46:27.000Z,-1.28
2023-01-26T19:56:36.104Z,-1.26
2023-01-26T20:06:42.008Z,-1.28
2023-01-26T20:16:47.923Z,-1.25
2023-01-26T20:26:54.302Z,-1.27
2023-01-26T20:37:01.099Z,-1.30
2023-01-26T20:47:07.500Z,-1.30
2023-01-26T20:57:11.845Z,-1.30
2023-01-26T21:07:17.574Z,-1.31
2023-01-26T21:17:24.521Z,-1.30
2023-01-26T21:27:30.483Z,-1.29
2023-01-26T21:37:36.363Z,-1.28
2023-01-26T21:47:42.289Z,-1.25
2023-01-26T21:58:05.694Z,-1.24
2023-01-26T22:08:11.744Z,-1.28
2023-01-26T22:18:17.766Z,-1.33
2023-01-26T22:28:23.609Z,-1.35
2023-01-26T22:38:29.443Z,-1.33
2023-01-26T22:48:35.658Z,-1.31
2023-01-26T22:58:56.592Z,-1.27
2023-01-26T23:09:04.821Z,-1.23
2023-01-26T23:19:11.158Z,-1.22
2023-01-26T23:29:16.851Z,-1.22
2023-01-26T23:39:22.890Z,-1.22
2023-01-26T23:49:28.700Z,-1.20
2023-01-26T23:59:34.645Z,-1.19
